Fogelsville, Pennsylvania
Current Conditions -  °F | °C
As of 12:35 PM on Thursday 30 Oct 2014 (Local Time) from KXLL Reporting Station
Broken Clouds Broken Clouds  
Wind Chill: 54°   Ceiling: 4100
Heat Index: 54°   Visibility: 10mi
Dew Point: 37°   Wind: 14mph
Humidity: 54%   Direction: 340°NNW
Pressure: 30.03"   Gusts: NA
Location:  40.58°N, 75.63°W
Report Text: KXLL 301635Z AUTO 34012KT 10SM BKN041 12/03 A3003 RMK AO2
Loading
Personal Weather Stations






























Interactive Weather Map New forecast layout! Learn more

10-Day Weather Forecast

Advertisements
Track Severe Weather on mobile